Time;durP1;ratioP1;P1;durP2;ratioP2;P2;SDS_P1;SDS_P2;PMS_P1;PMS_P2;Temp;Humidity;BMP_temperature;BMP_pressure;BME280_temperature;BME280_humidity;BME280_pressure;Samples;Min_cycle;Max_cycle;Signal;HPM_P1;HPM_P2
2021/09/08 00:02:45;;;;;;;17.20;8.67;;;;;;;16.29;64.47;101475.05;5223290;57;21096;-81
2021/09/08 00:07:50;;;;;;;18.87;9.03;;;;;;;16.17;64.44;101476.96;5223217;57;22096;-82
2021/09/08 00:12:56;;;;;;;21.13;8.80;;;;;;;16.06;64.55;101476.52;5210801;56;21157;-80
2021/09/08 00:18:02;;;;;;;38.17;12.97;;;;;;;16.00;64.76;101477.55;5188942;57;21191;-81
2021/09/08 00:23:08;;;;;;;25.23;10.97;;;;;;;15.91;64.89;101480.98;5188877;57;21151;-81
2021/09/08 00:28:14;;;;;;;25.80;10.87;;;;;;;15.87;65.32;101483.09;5188800;57;22094;-81
2021/09/08 00:33:20;;;;;;;29.67;11.23;;;;;;;15.82;65.33;101487.47;5189062;57;21153;-80
2021/09/08 00:38:26;;;;;;;31.80;10.70;;;;;;;15.83;65.17;101492.31;5188945;57;21156;-81
2021/09/08 00:43:32;;;;;;;18.67;8.73;;;;;;;15.81;65.39;101485.77;5231587;56;21495;-81
2021/09/08 00:48:40;;;;;;;13.23;8.57;;;;;;;15.77;65.04;101486.16;5276229;56;21173;-81
2021/09/08 00:53:46;;;;;;;16.10;9.17;;;;;;;15.57;65.13;101492.33;5276381;56;21145;-81
2021/09/08 00:58:52;;;;;;;14.00;8.87;;;;;;;15.55;65.81;101487.12;5276179;56;21141;-81
2021/09/08 01:03:58;;;;;;;11.20;8.33;;;;;;;15.49;65.84;101481.77;5275859;56;21145;-81
2021/09/08 01:09:07;;;;;;;15.63;10.00;;;;;;;15.42;65.84;101478.41;5276029;55;21653;-81
2021/09/08 01:14:13;;;;;;;14.47;7.70;;;;;;;15.34;65.91;101476.37;5276258;55;21168;-81
2021/09/08 01:19:20;;;;;;;19.90;9.57;;;;;;;15.16;65.57;101471.20;5276901;55;21153;-81
2021/09/08 01:24:26;;;;;;;23.57;9.20;;;;;;;15.05;66.19;101476.09;5276808;56;21156;-81
2021/09/08 01:29:31;;;;;;;16.63;9.90;;;;;;;15.01;66.38;101471.13;5276691;56;22148;-81
2021/09/08 01:34:37;;;;;;;16.70;10.30;;;;;;;15.06;66.94;101467.61;5276713;56;21188;-80
2021/09/08 01:39:43;;;;;;;19.60;10.10;;;;;;;15.08;66.94;101465.67;5276681;56;21086;-80
2021/09/08 01:44:49;;;;;;;21.77;10.93;;;;;;;15.09;66.94;101459.38;5211921;55;21123;-80
2021/09/08 01:49:54;;;;;;;21.80;11.07;;;;;;;15.10;67.07;101462.40;5189399;57;21186;-80
2021/09/08 01:55:00;;;;;;;22.10;11.03;;;;;;;15.09;67.07;101454.89;5189396;57;21157;-80
2021/09/08 02:00:09;;;;;;;21.67;11.30;;;;;;;15.08;67.11;101459.01;5189263;57;21150;-80
2021/09/08 02:05:21;;;;;;;25.50;10.67;;;;;;;15.04;67.13;101462.40;5189298;57;21155;-80
2021/09/08 02:10:26;;;;;;;24.50;11.90;;;;;;;14.98;67.10;101462.89;5189343;57;21796;-80
2021/09/08 02:15:34;;;;;;;18.80;11.00;;;;;;;14.95;67.00;101467.16;5290192;55;21520;-80
2021/09/08 02:20:40;;;;;;;23.77;11.73;;;;;;;14.92;67.04;101473.20;5384909;55;22100;-80
2021/09/08 02:25:45;;;;;;;15.87;9.23;;;;;;;14.89;67.14;101469.45;5385234;55;21144;-80
2021/09/08 02:30:51;;;;;;;21.27;9.03;;;;;;;14.84;67.06;101472.96;5384918;55;21178;-79
2021/09/08 02:35:56;;;;;;;15.80;8.93;;;;;;;14.74;67.25;101468.88;5385001;55;21164;-80
2021/09/08 02:41:08;;;;;;;14.90;9.00;;;;;;;14.64;67.49;101476.76;5351762;55;21147;-81
2021/09/08 02:46:14;;;;;;;15.13;8.77;;;;;;;14.58;67.93;101466.58;5359622;55;21142;-80
2021/09/08 02:51:19;;;;;;;17.17;9.70;;;;;;;14.56;67.97;101462.34;5367674;55;21531;-80
2021/09/08 02:56:25;;;;;;;19.13;10.57;;;;;;;14.55;68.11;101473.95;5359061;55;21619;-80
2021/09/08 03:01:31;;;;;;;17.27;10.00;;;;;;;14.56;68.10;101468.52;5378280;55;21425;-80
2021/09/08 03:06:37;;;;;;;20.10;9.53;;;;;;;14.59;68.35;101469.61;5364518;55;21525;-80
2021/09/08 03:11:43;;;;;;;15.43;9.67;;;;;;;14.59;68.21;101470.94;5346523;55;21200;-81
2021/09/08 03:16:49;;;;;;;21.13;10.10;;;;;;;14.52;68.12;101468.87;5308727;55;21140;-82
2021/09/08 03:21:55;;;;;;;14.27;8.70;;;;;;;14.43;68.05;101464.64;5276622;56;21199;-81
2021/09/08 03:27:00;;;;;;;15.37;9.90;;;;;;;14.35;68.15;101472.37;5276581;56;21149;-82
2021/09/08 03:32:07;;;;;;;23.00;11.00;;;;;;;14.22;68.07;101470.27;5276504;56;21166;-82
2021/09/08 03:37:12;;;;;;;15.53;9.83;;;;;;;14.14;68.34;101464.72;5255236;55;21515;-83
2021/09/08 03:42:18;;;;;;;26.07;13.70;;;;;;;14.16;68.65;101459.28;5210182;56;21165;-85
2021/09/08 03:47:24;;;;;;;25.80;11.40;;;;;;;14.18;68.77;101461.34;5276545;56;21592;-86
2021/09/08 03:52:29;;;;;;;22.90;11.03;;;;;;;14.18;68.91;101458.68;5276526;56;21205;-87
2021/09/08 03:57:35;;;;;;;29.73;12.03;;;;;;;14.16;68.93;101457.95;5276683;56;21102;-86
2021/09/08 04:02:41;;;;;;;41.10;12.87;;;;;;;14.14;69.06;101454.55;5277274;56;21160;-86
2021/09/08 04:07:49;;;;;;;33.77;11.10;;;;;;;14.11;69.10;101454.78;5277204;56;21152;-85
2021/09/08 04:12:55;;;;;;;49.50;10.27;;;;;;;14.06;68.83;101456.46;5276709;56;21168;-86
2021/09/08 04:18:01;;;;;;;26.60;11.07;;;;;;;14.07;68.89;101454.17;5362600;55;21149;-84
2021/09/08 04:23:07;;;;;;;43.33;9.80;;;;;;;14.07;69.06;101453.69;5385154;55;21187;-85
2021/09/08 04:28:12;;;;;;;76.53;14.97;;;;;;;14.05;69.13;101453.47;5385048;55;21145;-86
2021/09/08 04:33:18;;;;;;;26.60;10.63;;;;;;;13.98;69.17;101445.09;5384926;55;21144;-84
2021/09/08 04:38:24;;;;;;;57.43;28.67;;;;;;;13.90;69.33;101451.47;5385127;55;21172;-86
2021/09/08 04:43:30;;;;;;;47.00;19.83;;;;;;;13.86;69.51;101444.72;5385019;55;21148;-85
2021/09/08 04:48:36;;;;;;;23.77;11.43;;;;;;;13.82;69.49;101447.72;5385077;55;21141;-85
2021/09/08 04:53:44;;;;;;;28.03;13.27;;;;;;;13.82;69.91;101451.70;5385656;55;21089;-85
2021/09/08 04:58:49;;;;;;;30.07;9.80;;;;;;;13.83;70.25;101465.38;5385681;55;21528;-86
2021/09/08 05:03:55;;;;;;;19.30;9.80;;;;;;;13.85;70.55;101464.77;5385596;55;21483;-85
2021/09/08 05:09:01;;;;;;;27.43;11.20;;;;;;;13.86;70.62;101462.00;5385563;55;21667;-85
2021/09/08 05:14:07;;;;;;;33.63;10.60;;;;;;;13.83;70.79;101462.23;5385725;55;21094;-86
2021/09/08 05:19:13;;;;;;;37.90;11.80;;;;;;;13.85;70.98;101460.31;5385442;55;21132;-86
2021/09/08 05:24:19;;;;;;;30.50;12.13;;;;;;;13.92;71.17;101454.87;5385889;55;21133;-86
2021/09/08 05:29:25;;;;;;;40.90;14.87;;;;;;;14.00;71.49;101461.80;5385664;55;21097;-86
2021/09/08 05:34:31;;;;;;;43.80;15.20;;;;;;;14.08;71.74;101462.52;5385756;55;21593;-85
2021/09/08 05:39:36;;;;;;;34.77;11.50;;;;;;;14.16;72.02;101457.47;5385980;55;21149;-85
2021/09/08 05:44:42;;;;;;;35.17;14.00;;;;;;;14.23;72.27;101454.67;5320547;55;22150;-86
2021/09/08 05:49:49;;;;;;;22.57;11.43;;;;;;;14.39;72.63;101460.48;5294673;56;21153;-86
2021/09/08 05:54:54;;;;;;;23.33;11.33;;;;;;;14.64;73.17;101458.60;5294588;56;21161;-84
2021/09/08 06:00:01;;;;;;;24.37;12.13;;;;;;;14.84;73.08;101456.98;5294482;56;21154;-84
2021/09/08 06:05:09;;;;;;;49.23;15.43;;;;;;;15.00;73.30;101458.28;5292509;56;21142;-83
2021/09/08 06:10:20;;;;;;;118.33;72.37;;;;;;;15.15;73.54;101454.85;5294421;56;22099;-84
2021/09/08 06:15:27;;;;;;;40.70;19.67;;;;;;;15.37;73.78;101454.80;5293181;56;21169;-84
2021/09/08 06:20:33;;;;;;;42.60;20.80;;;;;;;15.58;73.84;101456.20;5189457;57;21165;-83
2021/09/08 06:25:39;;;;;;;32.33;12.93;;;;;;;15.85;74.32;101452.17;5189473;57;21099;-84
2021/09/08 06:30:45;;;;;;;39.23;13.57;;;;;;;16.10;74.25;101449.09;5189504;57;21162;-84
2021/09/08 06:35:52;;;;;;;21.17;11.63;;;;;;;16.38;73.89;101452.88;5189468;57;21237;-84
2021/09/08 06:40:58;;;;;;;21.70;12.87;;;;;;;16.55;73.55;101448.25;5189359;57;21760;-84
2021/09/08 06:46:04;;;;;;;19.27;11.47;;;;;;;16.71;73.20;101443.77;5221800;56;21149;-84
2021/09/08 06:51:10;;;;;;;23.30;13.20;;;;;;;16.77;73.10;101440.08;5217665;56;21166;-84
2021/09/08 06:56:15;;;;;;;31.07;14.00;;;;;;;17.02;73.78;101440.54;5265776;56;21156;-84
2021/09/08 07:01:21;;;;;;;27.20;13.93;;;;;;;17.35;73.58;101447.33;5276812;56;21233;-83
2021/09/08 07:06:26;;;;;;;24.27;13.00;;;;;;;17.70;73.63;101443.63;5208945;56;21153;-83
2021/09/08 07:11:32;;;;;;;26.47;13.87;;;;;;;17.91;72.34;101438.09;5230304;56;21152;-84
2021/09/08 07:16:38;;;;;;;23.17;12.30;;;;;;;18.17;72.73;101445.02;5212611;56;21138;-83
2021/09/08 07:21:43;;;;;;;27.13;12.23;;;;;;;18.45;72.29;101446.75;5240280;56;21526;-83
2021/09/08 07:26:49;;;;;;;20.37;12.17;;;;;;;18.54;71.06;101439.15;5276840;56;21196;-83
2021/09/08 07:31:55;;;;;;;24.27;13.40;;;;;;;18.68;70.69;101443.20;5225578;56;22114;-83
2021/09/08 07:37:01;;;;;;;18.00;13.00;;;;;;;18.83;71.12;101447.56;5189862;56;21156;-85
2021/09/08 07:42:06;;;;;;;29.13;11.37;;;;;;;19.14;70.81;101446.23;5205797;56;21149;-85
2021/09/08 07:47:12;;;;;;;27.02;12.33;;;;;;;19.42;69.08;101448.34;5087175;58;21200;-85
2021/09/08 07:52:18;;;;;;;23.77;14.98;;;;;;;19.54;69.55;101446.33;5272577;56;21529;-86
2021/09/08 07:57:23;;;;;;;20.13;11.87;;;;;;;19.83;69.59;101451.42;5088658;58;21195;-88
2021/09/08 08:02:29;;;;;;;18.25;11.93;;;;;;;20.12;69.18;101449.77;5271989;56;21168;-87
2021/09/08 08:07:34;;;;;;;19.70;9.85;;;;;;;20.32;67.85;101448.03;5087451;58;21220;-88
2021/09/08 08:12:41;;;;;;;29.45;14.75;;;;;;;20.37;66.51;101452.97;5271973;56;21160;-87
2021/09/08 08:17:47;;;;;;;16.70;11.18;;;;;;;20.48;67.36;101458.55;5241207;56;21160;-89
2021/09/08 08:22:53;;;;;;;26.00;11.78;;;;;;;20.53;66.13;101461.61;5087810;58;21166;-88
2021/09/08 08:28:02;;;;;;;71.55;13.25;;;;;;;20.56;66.62;101462.14;5272860;56;21102;-85
2021/09/08 08:33:08;;;;;;;21.25;11.78;;;;;;;20.79;66.99;101452.14;5088008;58;21163;-87
2021/09/08 08:38:14;;;;;;;15.55;11.53;;;;;;;20.93;66.42;101448.85;5272487;56;21614;-86
2021/09/08 08:43:21;;;;;;;26.95;11.30;;;;;;;20.98;65.65;101452.71;5274718;56;21145;-88
2021/09/08 08:48:27;;;;;;;20.45;11.55;;;;;;;21.19;64.67;101449.61;5277561;56;21614;-87
2021/09/08 08:53:33;;;;;;;20.55;10.23;;;;;;;21.30;63.92;101453.32;5278043;56;21141;-88
2021/09/08 08:58:39;;;;;;;18.30;11.43;;;;;;;21.38;63.34;101449.31;5277796;56;21142;-84
2021/09/08 09:04:05;;;;;;;13.18;9.53;;;;;;;21.39;62.98;101450.13;5276638;56;21684;-84
2021/09/08 09:09:16;;;;;;;17.23;10.63;;;;;;;21.47;63.94;101446.61;5277485;56;21180;-83
2021/09/08 09:14:22;;;;;;;17.80;9.43;;;;;;;21.69;63.34;101447.30;5277561;56;22098;-83
2021/09/08 09:19:28;;;;;;;18.35;10.13;;;;;;;21.88;61.01;101451.48;5321294;55;21573;-86
2021/09/08 09:24:38;;;;;;;16.10;9.08;;;;;;;22.05;61.84;101444.59;5385628;55;21176;-86
2021/09/08 09:29:46;;;;;;;11.97;9.60;;;;;;;22.21;59.35;101440.17;5385787;55;21145;-83
2021/09/08 09:34:57;;;;;;;16.55;9.95;;;;;;;22.17;60.01;101434.78;5385644;55;21175;-88
2021/09/08 09:40:06;;;;;;;12.20;10.35;;;;;;;22.28;59.75;101430.41;5386213;55;21192;-87
2021/09/08 09:45:13;;;;;;;12.03;9.55;;;;;;;22.45;60.36;101419.39;5385888;55;21153;-86
2021/09/08 09:50:22;;;;;;;14.53;10.08;;;;;;;22.58;59.34;101416.64;5385303;55;21198;-83
2021/09/08 09:55:28;;;;;;;16.57;9.58;;;;;;;22.75;58.64;101415.05;5385424;55;21538;-82
2021/09/08 10:00:34;;;;;;;13.90;8.50;;;;;;;22.93;57.86;101411.24;5385292;55;21137;-86
2021/09/08 10:05:41;;;;;;;10.93;9.03;;;;;;;23.01;55.76;101406.66;5385542;55;21198;-84
2021/09/08 10:10:48;;;;;;;11.53;7.80;;;;;;;23.08;55.57;101395.45;5385095;55;21491;-83
2021/09/08 10:15:54;;;;;;;11.68;8.28;;;;;;;23.05;53.52;101397.19;5344003;55;21144;-85
2021/09/08 10:21:08;;;;;;;13.20;8.70;;;;;;;22.99;54.89;101386.27;5356869;55;21672;-83
2021/09/08 10:26:17;;;;;;;13.65;9.70;;;;;;;23.08;55.26;101383.82;5337299;55;21143;-86
2021/09/08 10:31:23;;;;;;;20.68;9.93;;;;;;;23.19;54.91;101386.64;5337079;55;22062;-84
2021/09/08 10:36:30;;;;;;;11.70;8.60;;;;;;;23.25;55.58;101379.15;5336807;55;21495;-84
2021/09/08 10:41:52;;;;;;;16.05;8.73;;;;;;;23.29;55.08;101379.13;5314118;55;21424;-84
2021/09/08 10:47:01;;;;;;;17.00;9.95;;;;;;;23.29;53.55;101373.22;5337808;55;21727;-90
2021/09/08 10:52:09;;;;;;;11.68;9.68;;;;;;;23.35;54.42;101368.96;5338094;55;21094;-88
2021/09/08 10:57:36;;;;;;;12.23;9.58;;;;;;;23.54;54.96;101362.22;5337988;55;21136;-87
2021/09/08 11:02:43;;;;;;;20.77;9.95;;;;;;;23.75;54.21;101362.37;5338216;55;21078;-88
2021/09/08 11:07:51;;;;;;;15.78;10.75;;;;;;;23.96;54.84;101362.48;5338344;55;21164;-89
2021/09/08 11:13:03;;;;;;;11.43;9.23;;;;;;;24.20;54.01;101343.78;5337748;55;21543;-88
2021/09/08 11:18:15;;;;;;;11.93;8.70;;;;;;;24.43;53.52;101336.43;5337691;55;21148;-91
2021/09/08 11:23:20;;;;;;;13.80;10.28;;;;;;;24.49;51.08;101338.36;5337813;54;21159;-87
2021/09/08 11:28:31;;;;;;;12.50;10.70;;;;;;;24.64;51.19;101330.20;5314214;55;21077;-86
2021/09/08 11:33:37;;;;;;;10.95;9.10;;;;;;;24.68;51.94;101336.91;5336574;55;21103;-87
2021/09/08 11:38:57;;;;;;;20.20;11.12;;;;;;;24.87;49.94;101336.30;5336654;55;21191;-86
2021/09/08 11:44:02;;;;;;;12.53;10.03;;;;;;;25.04;49.83;101319.31;5335807;55;21092;-84
2021/09/08 11:49:13;;;;;;;15.50;9.73;;;;;;;25.06;49.51;101323.16;5336737;55;21420;-86
2021/09/08 11:54:25;;;;;;;10.05;9.00;;;;;;;25.18;49.62;101319.76;5336664;55;21556;-86
2021/09/08 11:59:36;;;;;;;12.17;10.07;;;;;;;25.40;49.69;101307.52;5333930;55;21164;-86
2021/09/08 12:04:43;;;;;;;14.13;11.57;;;;;;;25.55;48.92;101300.97;5336342;55;21179;-86
2021/09/08 12:09:52;;;;;;;15.40;9.98;;;;;;;25.66;48.73;101300.15;5336819;55;21161;-85
2021/09/08 12:14:58;;;;;;;17.07;12.07;;;;;;;25.76;48.92;101293.84;5336679;55;21205;-86
2021/09/08 12:20:11;;;;;;;22.87;10.50;;;;;;;25.82;48.50;101278.95;5336867;54;21156;-86
2021/09/08 12:25:20;;;;;;;11.65;9.65;;;;;;;25.84;47.63;101282.30;5337205;55;21185;-85
2021/09/08 12:30:27;;;;;;;16.37;11.20;;;;;;;25.99;48.34;101279.45;5337038;55;21402;-87
2021/09/08 12:35:52;;;;;;;15.08;9.65;;;;;;;26.08;47.72;101278.27;5285868;55;21666;-85
2021/09/08 12:41:27;;;;;;;14.83;10.03;;;;;;;26.20;47.03;101271.73;5233273;56;21147;-87
2021/09/08 12:46:47;;;;;;;11.53;9.68;;;;;;;26.07;46.18;101268.98;5247527;56;21155;-87
2021/09/08 12:51:57;;;;;;;17.92;10.58;;;;;;;26.10;46.74;101259.93;5248181;56;21174;-88
2021/09/08 12:57:04;;;;;;;23.30;10.80;;;;;;;26.01;46.82;101248.09;5249878;55;21159;-85
2021/09/08 13:02:13;;;;;;;15.75;11.45;;;;;;;26.14;47.88;101248.13;5282200;55;21175;-88
2021/09/08 13:07:18;;;;;;;16.15;9.73;;;;;;;26.26;46.23;101249.24;5287919;55;21167;-90
2021/09/08 13:12:24;;;;;;;11.50;9.33;;;;;;;26.40;46.63;101239.30;5277736;55;21144;-88
2021/09/08 13:17:30;;;;;;;10.00;8.53;;;;;;;26.54;46.75;101229.62;5269133;55;21533;-88
2021/09/08 13:22:36;;;;;;;10.20;7.83;;;;;;;26.66;45.30;101224.93;5282258;55;21152;-90
2021/09/08 13:27:42;;;;;;;17.65;9.55;;;;;;;26.52;45.63;101226.79;5336238;55;21178;-89
2021/09/08 13:32:48;;;;;;;11.28;10.08;;;;;;;26.57;46.31;101217.00;5249409;56;21146;-94
2021/09/08 13:37:53;;;;;;;14.23;9.93;;;;;;;26.71;46.01;101215.13;5250085;56;21197;-93
2021/09/08 13:43:00;;;;;;;12.55;7.28;;;;;;;26.79;45.28;101205.41;5249828;55;21473;-92
2021/09/08 13:48:06;;;;;;;19.95;9.30;;;;;;;26.83;44.03;101199.05;5249304;56;21102;-92
2021/09/08 13:53:12;;;;;;;17.37;9.60;;;;;;;26.80;45.06;101192.16;5286207;55;21184;-92
2021/09/08 13:58:18;;;;;;;12.68;8.88;;;;;;;26.67;44.83;101179.11;5289296;55;21093;-86
2021/09/08 14:03:25;;;;;;;18.87;8.35;;;;;;;26.59;44.35;101186.92;5337366;55;21538;-86
2021/09/08 14:08:38;;;;;;;7.95;7.15;;;;;;;26.61;44.93;101173.98;5337145;55;21140;-85
2021/09/08 14:13:40;;;;;;;10.90;7.92;;;;;;;26.50;45.34;101176.80;5336457;55;21148;-86
2021/09/08 14:18:46;;;;;;;10.82;8.23;;;;;;;26.53;44.77;101172.33;5337309;55;22069;-86
2021/09/08 14:23:53;;;;;;;14.87;9.78;;;;;;;26.68;44.50;101159.08;5299561;54;21177;-86
2021/09/08 14:28:59;;;;;;;18.45;9.35;;;;;;;26.68;45.17;101155.00;5276936;56;21194;-86
2021/09/08 14:34:05;;;;;;;13.32;8.75;;;;;;;26.74;44.70;101153.62;5276926;56;21094;-86
2021/09/08 14:39:11;;;;;;;17.45;9.28;;;;;;;26.81;43.68;101153.11;5276946;56;21149;-86
2021/09/08 14:44:16;;;;;;;45.48;35.30;;;;;;;26.78;44.75;101146.75;5221598;56;21162;-86
2021/09/08 14:49:23;;;;;;;25.65;9.45;;;;;;;26.79;44.67;101144.34;5218601;56;21133;-86
2021/09/08 14:54:29;;;;;;;22.95;15.20;;;;;;;26.84;44.28;101139.13;5198251;56;21155;-87
2021/09/08 14:59:35;;;;;;;11.68;8.53;;;;;;;26.83;43.51;101138.81;5222518;56;21561;-86
2021/09/08 15:04:46;;;;;;;14.15;8.40;;;;;;;26.85;44.56;101143.52;5189757;57;21156;-85
2021/09/08 15:09:49;;;;;;;11.08;7.37;;;;;;;26.84;43.09;101133.70;5133848;57;21576;-87
2021/09/08 15:14:55;;;;;;;12.98;8.33;;;;;;;26.82;44.02;101130.88;5092107;58;21115;-87
2021/09/08 15:20:01;;;;;;;11.28;8.95;;;;;;;26.82;44.69;101124.93;5091970;58;21170;-85
2021/09/08 15:25:13;;;;;;;10.05;8.20;;;;;;;26.86;44.30;101130.78;5091867;57;21139;-86
2021/09/08 15:30:19;;;;;;;19.42;9.83;;;;;;;26.77;43.71;101123.88;5061799;58;21107;-87
2021/09/08 15:35:25;;;;;;;17.98;13.55;;;;;;;26.64;44.12;101113.88;5010304;59;21169;-86
2021/09/08 15:40:31;;;;;;;19.50;12.23;;;;;;;26.66;44.96;101110.44;5189245;57;21093;-85
2021/09/08 15:45:37;;;;;;;22.05;9.55;;;;;;;26.65;45.08;101110.12;5268068;56;21140;-85
2021/09/08 15:50:44;;;;;;;16.05;9.23;;;;;;;26.66;44.94;101109.08;5239614;56;21464;-84
2021/09/08 15:55:51;;;;;;;10.53;9.35;;;;;;;26.59;44.71;101096.86;5242865;56;21425;-83
2021/09/08 16:01:02;;;;;;;19.92;9.93;;;;;;;26.60;45.18;101093.63;5219220;56;21145;-84
2021/09/08 16:06:10;;;;;;;13.40;9.88;;;;;;;26.61;45.34;101098.01;5235923;56;21239;-85
2021/09/08 16:11:16;;;;;;;16.95;8.20;;;;;;;26.63;45.48;101094.57;5242112;56;21160;-84
2021/09/08 16:16:22;;;;;;;12.35;8.00;;;;;;;26.56;45.92;101089.16;5227790;56;21142;-84
2021/09/08 16:21:28;;;;;;;10.38;8.20;;;;;;;26.53;45.96;101086.03;5248885;56;21144;-84
2021/09/08 16:26:36;;;;;;;10.68;8.55;;;;;;;26.51;46.26;101079.98;5343034;55;21206;-86
2021/09/08 16:31:41;;;;;;;16.48;9.28;;;;;;;26.49;46.17;101072.04;5378398;55;21176;-87
2021/09/08 16:48:43;;;;;;;13.15;8.93;;;;;;;26.51;46.22;101066.41;4886934;59;21131;-86
2021/09/08 16:53:50;;;;;;;15.08;9.93;;;;;;;26.32;47.22;101057.23;4832431;61;21232;-86
2021/09/08 16:58:56;;;;;;;15.65;11.22;;;;;;;26.26;47.30;101056.70;4808535;61;21268;-86
2021/09/08 17:04:02;;;;;;;17.07;11.45;;;;;;;26.16;47.28;101048.95;4808433;61;21305;-85
2021/09/08 17:09:08;;;;;;;51.95;12.15;;;;;;;25.99;47.70;101050.41;4839642;61;21205;-87
2021/09/08 17:14:15;;;;;;;59.00;14.65;;;;;;;25.83;48.76;101044.86;4763415;62;21214;-86
2021/09/08 17:19:21;;;;;;;65.45;16.07;;;;;;;25.50;49.63;101043.42;4763216;62;21225;-86
2021/09/08 17:24:26;;;;;;;103.05;21.17;;;;;;;25.17;50.44;101043.81;4763463;62;21225;-86
2021/09/08 17:29:32;;;;;;;109.25;20.30;;;;;;;24.91;51.06;101049.88;4763534;62;21209;-87
2021/09/08 17:34:38;;;;;;;41.45;13.58;;;;;;;24.72;51.83;101044.69;4788564;61;21213;-85
2021/09/08 17:39:44;;;;;;;40.98;12.43;;;;;;;24.52;52.73;101049.95;4836827;61;21190;-86
2021/09/08 17:44:50;;;;;;;38.50;11.30;;;;;;;24.39;53.61;101059.84;4834216;61;21646;-86
2021/09/08 17:49:57;;;;;;;29.02;11.90;;;;;;;24.15;54.34;101055.64;4830993;61;21302;-87
2021/09/08 17:55:06;;;;;;;41.13;12.25;;;;;;;23.86;55.24;101056.61;4831162;61;21218;-87
2021/09/08 18:00:15;;;;;;;32.58;13.05;;;;;;;23.64;56.00;101057.13;4834120;61;21206;-88
2021/09/08 18:05:21;;;;;;;22.27;12.07;;;;;;;23.47;56.64;101064.59;4833868;61;21742;-87
2021/09/08 18:10:28;;;;;;;40.60;13.85;;;;;;;23.35;57.24;101062.06;4835819;61;21592;-87
2021/09/08 18:15:35;;;;;;;49.18;16.42;;;;;;;23.13;57.55;101061.66;4835989;61;21661;-87
2021/09/08 18:20:41;;;;;;;40.67;14.00;;;;;;;22.93;57.95;101069.98;4835516;61;21221;-88
2021/09/08 18:25:47;;;;;;;76.05;15.50;;;;;;;22.69;58.38;101071.91;4834579;61;22416;-93
2021/09/08 18:30:54;;;;;;;55.05;15.83;;;;;;;22.56;58.81;101066.31;4784737;61;21836;-89
2021/09/08 18:35:59;;;;;;;32.10;13.45;;;;;;;22.46;59.33;101071.95;4797134;61;21718;-90
2021/09/08 18:41:08;;;;;;;32.17;14.05;;;;;;;22.35;59.55;101075.60;4834218;61;21205;-88
2021/09/08 18:46:15;;;;;;;24.15;10.95;;;;;;;22.25;59.85;101075.02;4836820;61;21146;-89
2021/09/08 18:51:22;;;;;;;31.97;12.00;;;;;;;22.20;60.28;101080.11;4860219;61;21802;-88
2021/09/08 18:56:29;;;;;;;29.70;12.33;;;;;;;22.15;60.59;101073.09;4859899;61;21742;-89
2021/09/08 19:01:35;;;;;;;22.02;13.15;;;;;;;22.12;60.70;101072.11;4863280;61;21249;-90
2021/09/08 19:06:41;;;;;;;87.00;69.75;;;;;;;22.04;60.77;101071.64;4863662;61;22522;-87
2021/09/08 19:11:47;;;;;;;57.75;42.60;;;;;;;21.89;60.72;101069.37;4866864;61;21186;-90
2021/09/08 19:16:53;;;;;;;33.88;23.87;;;;;;;21.76;61.00;101069.45;4872054;61;21623;-90
2021/09/08 19:22:00;;;;;;;47.38;14.40;;;;;;;21.70;61.45;101071.50;4871740;61;21169;-89
2021/09/08 19:27:06;;;;;;;33.98;12.33;;;;;;;21.60;61.40;101069.56;4870753;61;21241;-88
2021/09/08 19:32:12;;;;;;;44.15;12.37;;;;;;;21.33;61.19;101062.81;4871686;61;21189;-89
2021/09/08 19:37:18;;;;;;;31.50;12.98;;;;;;;21.04;61.63;101058.03;4871932;61;22150;-88
2021/09/08 19:42:24;;;;;;;39.35;13.10;;;;;;;20.97;62.65;101065.10;4873349;61;21186;-88
2021/09/08 19:47:31;;;;;;;35.60;12.78;;;;;;;20.96;62.76;101062.58;4861434;61;21209;-89
2021/09/08 19:52:37;;;;;;;19.67;12.63;;;;;;;20.97;63.25;101052.16;4828883;61;21817;-88
2021/09/08 19:57:46;;;;;;;19.48;11.73;;;;;;;20.96;63.20;101047.29;4835199;61;21218;-88
2021/09/08 20:02:52;;;;;;;19.80;12.45;;;;;;;20.96;63.17;101048.62;4834737;61;21271;-89
2021/09/08 20:07:59;;;;;;;18.05;13.60;;;;;;;20.91;63.10;101052.37;4834597;61;21229;-88
2021/09/08 20:13:05;;;;;;;22.07;12.55;;;;;;;20.90;63.40;101051.20;4834488;61;21485;-88
2021/09/08 20:18:11;;;;;;;15.75;11.63;;;;;;;20.85;63.20;101042.80;4834755;61;21690;-88
2021/09/08 20:23:16;;;;;;;22.32;13.13;;;;;;;20.73;63.01;101040.16;4833871;61;21244;-87
2021/09/08 20:28:23;;;;;;;33.40;14.30;;;;;;;20.64;63.13;101036.13;4832888;61;21198;-87
2021/09/08 20:33:29;;;;;;;15.15;12.13;;;;;;;20.56;63.13;101038.00;4834332;61;21568;-88
2021/09/08 20:38:35;;;;;;;18.00;12.70;;;;;;;20.43;63.09;101035.84;4828662;61;21696;-88
2021/09/08 20:43:41;;;;;;;20.85;12.90;;;;;;;20.27;63.26;101039.86;4827562;61;22475;-88
2021/09/08 20:48:47;;;;;;;16.27;11.55;;;;;;;20.18;63.57;101040.35;4847225;60;21197;-87
2021/09/08 20:53:53;;;;;;;16.75;11.48;;;;;;;20.11;63.54;101041.20;4865174;61;21214;-88
2021/09/08 20:58:59;;;;;;;18.57;12.55;;;;;;;19.88;63.52;101033.80;4865436;61;21142;-89
2021/09/08 21:04:05;;;;;;;14.68;11.80;;;;;;;19.81;63.93;101031.47;4865706;61;21754;-89
2021/09/08 21:09:10;;;;;;;18.75;11.70;;;;;;;19.83;63.99;101033.98;4865568;61;21653;-88
2021/09/08 21:14:17;;;;;;;19.73;12.45;;;;;;;19.80;64.07;101023.58;4865575;61;21253;-90
2021/09/08 21:19:23;;;;;;;16.57;11.48;;;;;;;19.80;64.17;101028.95;4865683;61;21213;-88
2021/09/08 21:24:29;;;;;;;14.80;12.43;;;;;;;19.76;63.98;101030.27;4865858;61;21709;-87
2021/09/08 21:29:34;;;;;;;21.97;12.37;;;;;;;19.65;63.85;101028.76;4865857;61;21158;-88
2021/09/08 21:34:41;;;;;;;22.42;11.57;;;;;;;19.59;63.91;101028.91;4866678;61;21230;-89
2021/09/08 21:39:47;;;;;;;20.55;11.78;;;;;;;19.48;63.73;101023.83;4866588;61;21282;-88
2021/09/08 21:44:52;;;;;;;21.20;13.15;;;;;;;19.28;63.73;101023.27;4866357;61;21145;-88
2021/09/08 21:49:58;;;;;;;15.03;12.23;;;;;;;19.19;64.32;101028.27;4851026;60;21150;-86
2021/09/08 21:55:05;;;;;;;18.95;13.22;;;;;;;19.12;64.54;101025.05;4835297;61;21268;-87
2021/09/08 22:00:15;;;;;;;22.05;13.05;;;;;;;19.03;64.64;101020.17;4834949;61;21194;-88
2021/09/08 22:05:21;;;;;;;21.85;12.20;;;;;;;18.97;64.79;101012.27;4835201;61;21641;-88
2021/09/08 22:10:27;;;;;;;16.95;12.35;;;;;;;18.93;64.73;101017.63;4835132;61;22438;-90
2021/09/08 22:15:32;;;;;;;15.88;12.53;;;;;;;18.87;64.74;101014.73;4834993;61;22499;-88
2021/09/08 22:20:38;;;;;;;19.07;12.90;;;;;;;18.84;65.04;101011.03;4834129;61;21691;-88
2021/09/08 22:25:44;;;;;;;18.70;13.08;;;;;;;18.80;65.06;101013.68;4834481;61;21158;-89
2021/09/08 22:30:50;;;;;;;23.67;14.50;;;;;;;18.72;64.86;101017.17;4834067;61;21551;-88
2021/09/08 22:35:56;;;;;;;19.42;13.20;;;;;;;18.72;65.18;101013.66;4834841;61;21250;-88
2021/09/08 22:41:02;;;;;;;19.52;13.72;;;;;;;18.65;64.87;101014.78;4834750;61;22630;-87
2021/09/08 22:46:08;;;;;;;18.87;13.48;;;;;;;18.45;64.71;101015.49;4831299;61;21694;-87
2021/09/08 22:51:14;;;;;;;22.70;13.75;;;;;;;18.39;65.26;101003.22;4848144;61;21592;-87
2021/09/08 22:56:20;;;;;;;32.98;14.40;;;;;;;18.25;64.97;101001.95;4860442;61;21258;-90
2021/09/08 23:01:27;;;;;;;23.22;14.03;;;;;;;18.11;65.44;101009.22;4860662;61;21261;-88
2021/09/08 23:06:33;;;;;;;21.52;13.95;;;;;;;18.08;65.93;101004.17;4860953;61;21855;-87
2021/09/08 23:11:39;;;;;;;19.73;13.62;;;;;;;17.97;65.58;101001.74;4861143;60;21577;-87
2021/09/08 23:16:46;;;;;;;19.82;13.93;;;;;;;17.82;65.85;101008.98;4861137;61;21222;-87
2021/09/08 23:21:53;;;;;;;22.23;15.40;;;;;;;17.72;66.20;101007.39;4860932;61;21488;-87
2021/09/08 23:27:00;;;;;;;18.62;13.98;;;;;;;17.69;66.55;101004.52;4860829;61;21139;-86
2021/09/08 23:32:07;;;;;;;26.37;15.38;;;;;;;17.73;66.80;101000.52;4860497;61;21210;-87